createdAt,value
2019-03-12T00:02:27.075Z,19.02
2019-03-12T00:04:54.271Z,19.03
2019-03-12T00:07:21.433Z,19.01
2019-03-12T00:09:48.667Z,18.97
2019-03-12T00:12:15.882Z,18.98
2019-03-12T00:14:43.150Z,18.97
2019-03-12T00:17:10.355Z,18.95
2019-03-12T00:19:37.544Z,18.97
2019-03-12T00:22:04.739Z,18.94
2019-03-12T00:24:32.075Z,18.92
2019-03-12T00:26:59.252Z,18.90
2019-03-12T00:29:26.498Z,18.92
2019-03-12T00:31:53.715Z,18.92
2019-03-12T00:34:20.952Z,18.94
2019-03-12T00:36:48.284Z,18.91
2019-03-12T00:39:15.495Z,18.91
2019-03-12T00:41:42.696Z,18.90
2019-03-12T00:44:09.949Z,18.87
2019-03-12T00:46:37.199Z,18.87
2019-03-12T00:49:04.397Z,18.88
2019-03-12T00:51:31.621Z,18.86
2019-03-12T00:53:58.823Z,18.83
2019-03-12T00:56:26.079Z,18.83
2019-03-12T00:58:53.394Z,18.85
2019-03-12T01:01:20.585Z,18.84
2019-03-12T01:03:47.857Z,18.86
2019-03-12T01:06:15.087Z,18.92
2019-03-12T01:08:42.378Z,18.93
2019-03-12T01:11:09.624Z,18.91
2019-03-12T01:13:36.924Z,18.90
2019-03-12T01:16:04.111Z,18.93
2019-03-12T01:18:31.461Z,18.90
2019-03-12T01:20:58.642Z,18.88
2019-03-12T01:23:25.862Z,18.88
2019-03-12T01:25:53.119Z,18.89
2019-03-12T01:28:20.339Z,18.94
2019-03-12T01:30:47.566Z,18.93
2019-03-12T01:33:14.756Z,18.89
2019-03-12T01:35:42.080Z,18.88
2019-03-12T01:38:09.380Z,18.89
2019-03-12T01:40:36.780Z,18.87
2019-03-12T01:43:04.050Z,18.93
2019-03-12T01:45:31.338Z,18.87
2019-03-12T01:47:58.647Z,18.89
2019-03-12T01:50:25.986Z,18.89
2019-03-12T01:52:53.319Z,18.88
2019-03-12T01:55:20.636Z,18.88
2019-03-12T01:57:47.991Z,18.87
2019-03-12T02:00:15.579Z,18.88
2019-03-12T02:02:42.770Z,18.87
2019-03-12T02:05:10.137Z,18.87
2019-03-12T02:07:37.433Z,18.82
2019-03-12T02:10:04.731Z,18.90
2019-03-12T02:12:32.007Z,18.86
2019-03-12T02:14:59.224Z,18.85
2019-03-12T02:17:26.552Z,18.84
2019-03-12T02:19:53.770Z,18.83
2019-03-12T02:22:20.959Z,18.85
2019-03-12T02:24:52.572Z,18.84
2019-03-12T02:27:17.314Z,18.84
2019-03-12T02:29:44.530Z,18.84
2019-03-12T02:32:11.792Z,18.84
2019-03-12T02:34:39.025Z,18.84
2019-03-12T02:37:06.272Z,18.83
2019-03-12T02:39:33.510Z,18.83
2019-03-12T02:42:00.751Z,18.86
2019-03-12T02:44:28.142Z,18.86
2019-03-12T02:46:55.408Z,18.85
2019-03-12T02:49:22.573Z,18.85
2019-03-12T02:51:49.782Z,18.85
2019-03-12T02:54:16.963Z,18.86
2019-03-12T02:56:44.267Z,18.85
2019-03-12T02:59:11.496Z,18.86
2019-03-12T03:01:38.727Z,18.85
2019-03-12T03:04:05.894Z,18.82
2019-03-12T03:06:52.815Z,18.85
2019-03-12T03:09:19.991Z,18.84
2019-03-12T03:11:50.672Z,18.79
2019-03-12T03:14:36.650Z,18.79
2019-03-12T03:17:04.213Z,18.82
2019-03-12T03:19:31.615Z,18.81
2019-03-12T03:21:58.832Z,18.80
2019-03-12T03:24:26.051Z,18.78
2019-03-12T03:26:53.238Z,18.79
2019-03-12T03:29:20.494Z,18.83
2019-03-12T03:31:47.735Z,18.81
2019-03-12T03:34:14.966Z,18.77
2019-03-12T03:36:42.224Z,18.74
2019-03-12T03:39:09.499Z,18.76
2019-03-12T03:41:36.722Z,18.76
2019-03-12T03:44:03.912Z,18.81
2019-03-12T03:46:31.125Z,18.81
2019-03-12T03:48:58.283Z,18.80
2019-03-12T03:51:25.555Z,18.80
2019-03-12T03:53:52.741Z,18.81
2019-03-12T03:56:19.977Z,18.80
2019-03-12T03:58:47.198Z,18.79
2019-03-12T04:01:14.427Z,18.77
2019-03-12T04:03:41.656Z,18.77
2019-03-12T04:06:08.844Z,18.72
2019-03-12T04:08:36.072Z,18.71
2019-03-12T04:11:03.263Z,18.69
2019-03-12T04:13:30.471Z,18.67
2019-03-12T04:15:57.690Z,18.65
2019-03-12T04:18:25.029Z,18.68
2019-03-12T04:20:52.219Z,18.70
2019-03-12T04:23:19.419Z,18.70
2019-03-12T04:25:46.692Z,18.72
2019-03-12T04:28:14.081Z,18.74
2019-03-12T04:30:41.267Z,18.75
2019-03-12T04:33:31.237Z,18.74
2019-03-12T04:35:58.516Z,18.75
2019-03-12T04:38:25.870Z,18.79
2019-03-12T04:40:53.060Z,18.76
2019-03-12T04:43:20.393Z,18.78
2019-03-12T04:45:47.714Z,18.80
2019-03-12T04:48:14.909Z,18.84
2019-03-12T04:50:42.139Z,18.83
2019-03-12T04:53:09.355Z,18.82
2019-03-12T04:55:36.549Z,18.82
2019-03-12T04:58:03.813Z,18.78
2019-03-12T05:00:31.023Z,18.79
2019-03-12T05:02:58.216Z,18.79
2019-03-12T05:05:25.454Z,18.79
2019-03-12T05:07:52.720Z,18.81
2019-03-12T05:10:19.952Z,18.79
2019-03-12T05:12:47.152Z,18.79
2019-03-12T05:15:14.322Z,18.80
2019-03-12T05:17:41.792Z,18.79
2019-03-12T05:20:10.938Z,18.77
2019-03-12T05:22:40.135Z,18.77
2019-03-12T05:25:09.000Z,18.79
2019-03-12T05:27:36.389Z,18.78
2019-03-12T05:30:06.928Z,18.80
2019-03-12T05:32:34.224Z,18.86
2019-03-12T05:35:01.540Z,18.86
2019-03-12T05:37:28.874Z,18.84
2019-03-12T05:39:56.178Z,18.84
2019-03-12T05:42:23.518Z,18.81
2019-03-12T05:44:50.858Z,18.83
2019-03-12T05:47:21.004Z,18.84
2019-03-12T05:49:48.702Z,18.84
2019-03-12T05:52:16.015Z,18.81
2019-03-12T05:54:43.352Z,18.82
2019-03-12T05:57:10.626Z,18.85
2019-03-12T05:59:37.867Z,18.81
2019-03-12T06:02:05.086Z,18.76
2019-03-12T06:04:32.325Z,18.70
2019-03-12T06:06:59.531Z,18.68
2019-03-12T06:09:30.378Z,18.65
2019-03-12T06:11:55.841Z,18.64
2019-03-12T06:14:23.123Z,18.68
2019-03-12T06:16:50.339Z,18.69
2019-03-12T06:19:17.540Z,18.71
2019-03-12T06:21:44.876Z,18.69
2019-03-12T06:24:12.086Z,18.67
2019-03-12T06:26:44.758Z,18.71
2019-03-12T06:29:12.430Z,18.73
2019-03-12T06:32:14.658Z,18.72
2019-03-12T06:34:49.482Z,18.74
2019-03-12T06:37:40.027Z,18.73
2019-03-12T06:40:20.717Z,18.78
2019-03-12T06:43:04.272Z,18.78
2019-03-12T06:45:51.368Z,18.78
2019-03-12T06:48:50.016Z,18.83
2019-03-12T06:51:32.096Z,18.84
2019-03-12T06:54:08.561Z,18.84
2019-03-12T06:56:57.984Z,18.86
2019-03-12T06:59:56.717Z,18.94
2019-03-12T07:02:32.123Z,19.00
2019-03-12T07:05:11.719Z,19.03
2019-03-12T07:07:58.557Z,19.02
2019-03-12T07:10:45.334Z,19.07
2019-03-12T07:13:21.176Z,19.09
2019-03-12T07:16:14.099Z,19.10
2019-03-12T07:19:03.506Z,19.12
2019-03-12T07:21:59.099Z,19.10
2019-03-12T07:24:47.372Z,19.12
2019-03-12T07:27:34.147Z,19.12
2019-03-12T07:30:25.856Z,19.12
2019-03-12T07:33:11.417Z,19.08
2019-03-12T07:36:01.065Z,19.07
2019-03-12T07:38:47.946Z,19.07
2019-03-12T07:41:49.938Z,19.09
2019-03-12T07:44:32.190Z,19.11
2019-03-12T07:47:16.886Z,19.14
2019-03-12T07:50:02.519Z,19.16
2019-03-12T07:52:48.219Z,19.14
2019-03-12T07:55:37.972Z,19.18
2019-03-12T07:58:35.298Z,19.21
2019-03-12T08:01:10.561Z,19.25
2019-03-12T08:03:59.074Z,19.25
2019-03-12T08:06:52.168Z,19.30
2019-03-12T08:09:50.938Z,19.34
2019-03-12T08:12:34.208Z,19.38
2019-03-12T08:15:23.111Z,19.41
2019-03-12T08:18:12.032Z,19.42
2019-03-12T08:20:50.714Z,19.51
2019-03-12T08:24:05.980Z,19.50
2019-03-12T08:26:40.802Z,19.47
2019-03-12T08:29:27.675Z,19.47
2019-03-12T08:32:20.334Z,19.47
2019-03-12T08:35:09.826Z,19.46
2019-03-12T08:37:52.892Z,19.50
2019-03-12T08:40:51.909Z,19.53
2019-03-12T08:43:34.144Z,19.54
2019-03-12T08:46:29.855Z,19.55
2019-03-12T08:49:13.953Z,19.52
2019-03-12T08:51:49.577Z,19.53
2019-03-12T08:54:54.270Z,19.55
2019-03-12T08:57:25.073Z,19.56
2019-03-12T09:00:18.036Z,19.54
2019-03-12T09:02:53.017Z,19.57
2019-03-12T09:05:47.094Z,19.67
2019-03-12T09:08:33.674Z,19.63
2019-03-12T09:11:26.391Z,19.61
2019-03-12T09:14:17.189Z,19.56
2019-03-12T09:17:02.400Z,19.54
2019-03-12T09:19:57.602Z,19.54
2019-03-12T09:22:56.239Z,19.60
2019-03-12T09:25:41.575Z,19.59
2019-03-12T09:28:35.803Z,19.60
2019-03-12T09:31:25.480Z,19.62
2019-03-12T09:34:02.564Z,19.60
2019-03-12T09:36:41.851Z,19.65
2019-03-12T09:39:28.652Z,19.73
2019-03-12T09:42:16.670Z,19.77
2019-03-12T09:45:24.706Z,19.75
2019-03-12T09:48:11.464Z,19.79
2019-03-12T09:50:46.926Z,19.82
2019-03-12T09:53:38.136Z,19.80
2019-03-12T09:56:24.293Z,19.82
2019-03-12T09:59:29.112Z,19.85
2019-03-12T10:02:03.261Z,19.87
2019-03-12T10:04:53.166Z,19.84
2019-03-12T10:07:40.130Z,19.83
2019-03-12T10:10:33.390Z,19.83
2019-03-12T10:13:17.043Z,19.81
2019-03-12T10:16:02.468Z,19.75
2019-03-12T10:18:48.206Z,19.73
2019-03-12T10:21:27.223Z,19.74
2019-03-12T10:24:32.446Z,19.79
2019-03-12T10:27:07.116Z,19.79
2019-03-12T10:29:55.268Z,19.71
2019-03-12T10:32:36.822Z,19.67
2019-03-12T10:35:26.359Z,19.67
2019-03-12T10:38:07.693Z,19.65
2019-03-12T10:40:41.075Z,19.63
2019-03-12T10:43:31.141Z,19.65
2019-03-12T10:46:15.551Z,19.64
2019-03-12T10:48:43.073Z,19.63
2019-03-12T10:51:12.877Z,19.64
2019-03-12T10:53:39.380Z,19.63
2019-03-12T10:56:06.715Z,19.65
2019-03-12T10:58:33.963Z,19.62
2019-03-12T11:01:01.195Z,19.65
2019-03-12T11:03:28.495Z,19.67
2019-03-12T11:05:55.961Z,19.70
2019-03-12T11:08:24.850Z,19.74
2019-03-12T11:10:52.203Z,19.74
2019-03-12T11:13:19.869Z,19.72
2019-03-12T11:15:54.361Z,19.68
2019-03-12T11:18:21.726Z,19.67
2019-03-12T11:20:49.268Z,19.67
2019-03-12T11:23:16.693Z,19.70
2019-03-12T11:25:44.912Z,19.72
2019-03-12T11:28:12.359Z,19.75
2019-03-12T11:30:40.385Z,19.76
2019-03-12T11:33:07.940Z,19.77
2019-03-12T11:35:39.399Z,19.78
2019-03-12T11:38:04.506Z,19.81
2019-03-12T11:40:43.832Z,19.81
2019-03-12T11:43:11.166Z,19.82
2019-03-12T11:45:38.989Z,19.83
2019-03-12T11:48:06.493Z,19.85
2019-03-12T11:50:33.724Z,19.85
2019-03-12T11:53:01.362Z,19.88
2019-03-12T11:55:28.938Z,19.89
2019-03-12T11:57:56.182Z,19.93
2019-03-12T12:00:26.921Z,19.94
2019-03-12T12:03:00.452Z,19.96
2019-03-12T12:05:28.285Z,19.99
2019-03-12T12:07:55.579Z,20.01
2019-03-12T12:10:22.822Z,20.01
2019-03-12T12:12:51.883Z,20.00
2019-03-12T12:15:19.084Z,19.98
2019-03-12T12:17:49.207Z,19.95
2019-03-12T12:20:28.374Z,19.95
2019-03-12T12:22:44.543Z,19.97
2019-03-12T12:25:12.515Z,19.98
2019-03-12T12:27:39.756Z,19.98
2019-03-12T12:30:08.763Z,19.95
2019-03-12T12:32:36.140Z,19.94
2019-03-12T12:35:04.064Z,19.92
2019-03-12T12:37:31.244Z,19.90
2019-03-12T12:39:58.512Z,19.89
2019-03-12T12:42:25.713Z,19.87
2019-03-12T12:44:52.915Z,19.89
2019-03-12T12:47:20.136Z,19.90
2019-03-12T12:49:47.383Z,19.90
2019-03-12T12:52:14.698Z,19.90
2019-03-12T12:54:42.040Z,19.88
2019-03-12T12:57:09.249Z,19.88
2019-03-12T12:59:36.451Z,19.88
2019-03-12T13:02:03.729Z,19.90
2019-03-12T13:04:30.999Z,19.91
2019-03-12T13:06:58.313Z,19.93
2019-03-12T13:09:25.529Z,19.91
2019-03-12T13:11:52.726Z,19.93
2019-03-12T13:14:20.042Z,19.95
2019-03-12T13:16:47.200Z,19.95
2019-03-12T13:19:14.411Z,19.96
2019-03-12T13:21:41.622Z,19.97
2019-03-12T13:24:08.944Z,19.99
2019-03-12T13:26:36.148Z,20.01
2019-03-12T13:29:03.371Z,20.03
2019-03-12T13:31:30.750Z,20.03
2019-03-12T13:33:58.222Z,20.06
2019-03-12T13:36:25.481Z,20.05
2019-03-12T13:38:52.926Z,20.05
2019-03-12T13:41:20.283Z,20.02
2019-03-12T13:43:47.955Z,20.03
2019-03-12T13:46:15.203Z,20.01
2019-03-12T13:48:42.405Z,19.99
2019-03-12T13:51:09.983Z,19.98
2019-03-12T13:53:37.324Z,19.99
2019-03-12T13:56:04.596Z,20.02
2019-03-12T13:58:31.822Z,20.01
2019-03-12T14:00:59.015Z,20.01
2019-03-12T14:03:26.352Z,20.06
2019-03-12T14:05:53.562Z,20.10
2019-03-12T14:08:20.752Z,20.05
2019-03-12T14:10:48.116Z,20.04
2019-03-12T14:13:15.352Z,20.04
2019-03-12T14:15:42.601Z,20.01
2019-03-12T14:18:09.771Z,20.00
2019-03-12T14:20:41.710Z,20.01
2019-03-12T14:23:09.411Z,20.01
2019-03-12T14:25:36.622Z,20.01
2019-03-12T14:28:03.932Z,20.04
2019-03-12T14:30:31.140Z,20.05
2019-03-12T14:32:58.391Z,20.08
2019-03-12T14:35:26.294Z,20.08
2019-03-12T14:37:53.649Z,20.05
2019-03-12T14:40:20.826Z,20.04
2019-03-12T14:42:48.008Z,20.01
2019-03-12T14:45:23.240Z,20.02
2019-03-12T14:47:50.448Z,20.00
2019-03-12T14:50:17.824Z,19.98
2019-03-12T14:52:47.645Z,20.00
2019-03-12T14:55:14.903Z,19.99
2019-03-12T14:57:42.231Z,19.94
2019-03-12T15:00:16.375Z,19.93
2019-03-12T15:02:43.569Z,19.91
2019-03-12T15:05:10.870Z,19.90
2019-03-12T15:07:38.077Z,19.88
2019-03-12T15:10:06.179Z,19.88
2019-03-12T15:12:33.386Z,19.87
2019-03-12T15:15:00.696Z,19.86
2019-03-12T15:17:27.874Z,19.88
2019-03-12T15:19:55.181Z,19.87
2019-03-12T15:22:22.415Z,19.89
2019-03-12T15:24:49.580Z,19.87
2019-03-12T15:27:16.836Z,19.86
2019-03-12T15:29:43.995Z,19.86
2019-03-12T15:32:11.299Z,19.85
2019-03-12T15:34:38.546Z,19.85
2019-03-12T15:37:05.792Z,19.87
2019-03-12T15:39:33.017Z,19.86
2019-03-12T15:42:00.310Z,19.87
2019-03-12T15:44:27.507Z,19.85
2019-03-12T15:46:54.700Z,19.86
2019-03-12T15:49:21.914Z,19.85
2019-03-12T15:51:49.213Z,19.84
2019-03-12T15:54:16.439Z,19.83
2019-03-12T15:56:43.771Z,19.82
2019-03-12T15:59:11.130Z,19.83
2019-03-12T16:01:38.306Z,19.81
2019-03-12T16:04:05.577Z,19.80
2019-03-12T16:06:32.771Z,19.78
2019-03-12T16:09:00.074Z,19.74
2019-03-12T16:11:31.130Z,19.75
2019-03-12T16:13:57.260Z,19.75
2019-03-12T16:16:24.471Z,19.74
2019-03-12T16:18:51.692Z,19.77
2019-03-12T16:21:18.992Z,19.76
2019-03-12T16:23:46.124Z,19.75
2019-03-12T16:26:13.335Z,19.73
2019-03-12T16:28:40.518Z,19.71
2019-03-12T16:31:07.734Z,19.73
2019-03-12T16:33:34.996Z,19.75
2019-03-12T16:36:02.383Z,19.73
2019-03-12T16:38:29.617Z,19.73
2019-03-12T16:40:56.813Z,19.72
2019-03-12T16:43:24.018Z,19.72
2019-03-12T16:45:51.205Z,19.74
2019-03-12T16:48:18.431Z,19.76
2019-03-12T16:50:45.727Z,19.76
2019-03-12T16:53:12.909Z,19.75
2019-03-12T16:55:40.221Z,19.73
2019-03-12T16:58:07.407Z,19.74
2019-03-12T17:00:35.109Z,19.74
2019-03-12T17:03:02.334Z,19.72
2019-03-12T17:05:29.774Z,19.71
2019-03-12T17:07:56.955Z,19.72
2019-03-12T17:10:24.215Z,19.71
2019-03-12T17:12:51.509Z,19.70
2019-03-12T17:15:18.766Z,19.69
2019-03-12T17:17:46.108Z,19.66
2019-03-12T17:20:14.296Z,19.65
2019-03-12T17:22:41.684Z,19.67
2019-03-12T17:25:09.412Z,19.69
2019-03-12T17:27:36.774Z,19.67
2019-03-12T17:30:05.860Z,19.66
2019-03-12T17:32:35.112Z,19.70
2019-03-12T17:35:04.871Z,19.70
2019-03-12T17:37:32.393Z,19.72
2019-03-12T17:40:03.963Z,19.74
2019-03-12T17:42:31.282Z,19.71
2019-03-12T17:44:58.498Z,19.71
2019-03-12T17:47:25.966Z,19.71
2019-03-12T17:49:53.300Z,19.71
2019-03-12T17:52:20.609Z,19.70
2019-03-12T17:54:48.139Z,19.69
2019-03-12T17:57:15.420Z,19.70
2019-03-12T17:59:42.678Z,19.73
2019-03-12T18:02:10.431Z,19.71
2019-03-12T18:04:37.593Z,19.69
2019-03-12T18:07:04.887Z,19.69
2019-03-12T18:09:32.172Z,19.69
2019-03-12T18:11:59.775Z,19.69
2019-03-12T18:14:27.005Z,19.72
2019-03-12T18:16:54.304Z,19.73
2019-03-12T18:19:21.504Z,19.75
2019-03-12T18:21:48.763Z,19.76
2019-03-12T18:24:15.985Z,19.75
2019-03-12T18:26:43.316Z,19.76
2019-03-12T18:29:10.542Z,19.75
2019-03-12T18:31:38.009Z,19.77
2019-03-12T18:34:05.230Z,19.78
2019-03-12T18:36:32.404Z,19.77
2019-03-12T18:39:08.232Z,19.76
2019-03-12T18:41:39.369Z,19.77
2019-03-12T18:44:06.793Z,19.74
2019-03-12T18:46:34.097Z,19.76
2019-03-12T18:49:01.478Z,19.73
2019-03-12T18:51:29.397Z,19.74
2019-03-12T18:53:58.191Z,19.74
2019-03-12T18:56:25.541Z,19.72
2019-03-12T18:58:52.905Z,19.71
2019-03-12T19:01:20.266Z,19.74
2019-03-12T19:03:47.656Z,19.73
2019-03-12T19:06:14.921Z,19.72
2019-03-12T19:08:48.081Z,19.73
2019-03-12T19:11:12.855Z,19.74
2019-03-12T19:13:40.975Z,19.74
2019-03-12T19:16:08.221Z,19.73
2019-03-12T19:18:35.844Z,19.76
2019-03-12T19:21:03.098Z,19.77
2019-03-12T19:23:30.265Z,19.76
2019-03-12T19:25:57.465Z,19.78
2019-03-12T19:28:24.713Z,19.79
2019-03-12T19:30:54.353Z,19.79
2019-03-12T19:33:22.757Z,19.77
2019-03-12T19:35:49.930Z,19.78
2019-03-12T19:38:17.250Z,19.80
2019-03-12T19:40:45.179Z,19.77
2019-03-12T19:43:15.518Z,19.77
2019-03-12T19:45:43.893Z,19.74
2019-03-12T19:48:15.061Z,19.77
2019-03-12T19:50:42.654Z,19.79
2019-03-12T19:53:09.853Z,19.78
2019-03-12T19:55:39.810Z,19.81
2019-03-12T19:58:07.212Z,19.81
2019-03-12T20:00:34.626Z,19.82
2019-03-12T20:03:10.710Z,19.80
2019-03-12T20:05:31.164Z,19.82
2019-03-12T20:07:58.480Z,19.79
2019-03-12T20:11:03.539Z,19.76
2019-03-12T20:14:07.102Z,19.77
2019-03-12T20:17:19.079Z,19.77
2019-03-12T20:20:23.789Z,19.76
2019-03-12T20:23:57.193Z,19.79
2019-03-12T20:27:21.911Z,19.78
2019-03-12T20:30:16.836Z,19.77
2019-03-12T20:33:31.142Z,19.75
2019-03-12T20:36:39.139Z,19.73
2019-03-12T20:39:53.128Z,19.73
2019-03-12T20:42:56.284Z,19.75
2019-03-12T20:45:54.722Z,19.73
2019-03-12T20:49:11.503Z,19.70
2019-03-12T20:52:48.114Z,19.69
2019-03-12T20:56:08.622Z,19.69
2019-03-12T20:59:12.833Z,19.68
2019-03-12T21:02:06.466Z,19.66
2019-03-12T21:05:23.708Z,19.67
2019-03-12T21:08:31.162Z,19.64
2019-03-12T21:11:44.885Z,19.59
2019-03-12T21:15:04.701Z,19.60
2019-03-12T21:18:03.227Z,19.60
2019-03-12T21:21:01.481Z,19.59
2019-03-12T21:23:50.605Z,19.59
2019-03-12T21:26:52.263Z,19.55
2019-03-12T21:29:47.166Z,19.54
2019-03-12T21:32:15.606Z,19.52
2019-03-12T21:34:42.842Z,19.53
2019-03-12T21:37:10.123Z,19.53
2019-03-12T21:39:37.445Z,19.59
2019-03-12T21:42:04.904Z,19.60
2019-03-12T21:44:32.362Z,19.59
2019-03-12T21:46:59.699Z,19.59
2019-03-12T21:49:27.069Z,19.55
2019-03-12T21:51:54.263Z,19.52
2019-03-12T21:54:21.472Z,19.56
2019-03-12T21:56:48.690Z,19.56
2019-03-12T21:59:15.980Z,19.54
2019-03-12T22:01:43.191Z,19.53
2019-03-12T22:04:10.375Z,19.57
2019-03-12T22:06:37.609Z,19.53
2019-03-12T22:09:05.346Z,19.55
2019-03-12T22:11:32.527Z,19.57
2019-03-12T22:13:59.696Z,19.54
2019-03-12T22:16:26.930Z,19.55
2019-03-12T22:18:54.267Z,19.57
2019-03-12T22:21:27.723Z,19.56
2019-03-12T22:23:55.208Z,19.53
2019-03-12T22:26:22.436Z,19.52
2019-03-12T22:28:49.639Z,19.52
2019-03-12T22:31:16.808Z,19.52
2019-03-12T22:33:44.023Z,19.53
2019-03-12T22:36:11.370Z,19.53
2019-03-12T22:38:38.658Z,19.50
2019-03-12T22:41:05.868Z,19.51
2019-03-12T22:43:33.080Z,19.52
2019-03-12T22:46:00.312Z,19.54
2019-03-12T22:48:27.563Z,19.50
2019-03-12T22:50:54.728Z,19.46
2019-03-12T22:53:21.936Z,19.48
2019-03-12T22:55:49.132Z,19.47
2019-03-12T22:58:16.347Z,19.44
2019-03-12T23:00:44.198Z,19.42
2019-03-12T23:03:11.394Z,19.38
2019-03-12T23:05:38.639Z,19.40
2019-03-12T23:08:05.830Z,19.42
2019-03-12T23:10:33.195Z,19.45
2019-03-12T23:13:00.515Z,19.42
2019-03-12T23:15:27.823Z,19.41
2019-03-12T23:17:55.285Z,19.42
2019-03-12T23:20:22.568Z,19.45
2019-03-12T23:22:52.152Z,19.42
2019-03-12T23:25:19.105Z,19.39
2019-03-12T23:27:46.301Z,19.33
2019-03-12T23:30:13.622Z,19.29
2019-03-12T23:32:40.998Z,19.22
2019-03-12T23:35:11.722Z,19.07
2019-03-12T23:37:39.059Z,19.16
2019-03-12T23:40:06.902Z,19.11
2019-03-12T23:42:34.159Z,19.08
2019-03-12T23:45:01.502Z,19.05
2019-03-12T23:47:29.164Z,19.01
2019-03-12T23:49:56.429Z,18.98
2019-03-12T23:52:23.866Z,18.96
2019-03-12T23:54:51.089Z,18.96
2019-03-12T23:57:18.354Z,18.93
2019-03-12T23:59:45.595Z,18.91
